Time;durP1;ratioP1;P1;durP2;ratioP2;P2;SDS_P1;SDS_P2;PMS_P1;PMS_P2;Temp;Humidity;BMP_temperature;BMP_pressure;BME280_temperature;BME280_humidity;BME280_pressure;Samples;Min_cycle;Max_cycle;Signal;HPM_P1;HPM_P2
2024/04/16 00:04:42;;;;;;;0.38;0.35;;;;;;;5.76;84.24;150117.44;11137721;26;20505;-74
2024/04/16 00:09:44;;;;;;;0.35;0.35;;;;;;;5.79;83.42;150126.41;11139468;26;20356;-73
2024/04/16 00:14:46;;;;;;;0.40;0.40;;;;;;;5.79;82.63;150125.13;11139129;26;20003;-73
2024/04/16 00:19:48;;;;;;;1.27;0.47;;;;;;;5.81;81.55;150130.28;11137619;26;20004;-72
2024/04/16 00:24:50;;;;;;;0.50;0.50;;;;;;;5.82;81.79;150132.84;11139004;26;20040;-72
2024/04/16 00:29:52;;;;;;;0.35;0.35;;;;;;;5.85;81.08;150139.31;11139601;26;20362;-72
2024/04/16 00:34:53;;;;;;;0.40;0.40;;;;;;;5.88;79.93;150147.00;11138543;26;20007;-72
2024/04/16 00:39:55;;;;;;;0.20;0.20;;;;;;;5.88;77.59;150147.00;11138965;26;20004;-73
2024/04/16 00:44:57;;;;;;;1.85;0.20;;;;;;;5.80;79.21;150129.00;11137072;26;20012;-74
2024/04/16 00:49:59;;;;;;;1.67;0.40;;;;;;;5.83;77.52;150136.69;11138506;26;20007;-73
2024/04/16 00:55:01;;;;;;;0.20;0.10;;;;;;;5.95;74.71;150166.34;11139041;26;20032;-72
2024/04/16 01:00:03;;;;;;;0.85;0.40;;;;;;;5.89;72.37;150149.56;11138212;26;20056;-72
2024/04/16 01:05:05;;;;;;;0.85;0.32;;;;;;;5.89;74.06;150150.88;11137792;26;19996;-72
2024/04/16 01:10:07;;;;;;;0.20;0.20;;;;;;;5.99;73.00;150176.66;11138325;26;20008;-72
2024/04/16 01:15:10;;;;;;;0.38;0.20;;;;;;;5.94;72.60;150163.78;11135608;26;20011;-72
2024/04/16 01:20:12;;;;;;;0.40;0.30;;;;;;;5.89;72.88;150150.88;11137860;26;20004;-72
2024/04/16 01:25:14;;;;;;;0.50;0.25;;;;;;;5.92;72.68;150158.63;11137611;26;20008;-73
2024/04/16 01:30:16;;;;;;;0.80;0.30;;;;;;;5.74;72.33;150113.53;11137090;26;20352;-72
2024/04/16 01:35:18;;;;;;;0.22;0.20;;;;;;;5.73;73.64;150109.69;11137064;26;20012;-73
2024/04/16 01:40:20;;;;;;;1.08;0.40;;;;;;;5.62;74.63;150082.66;11136798;26;20000;-72
2024/04/16 01:45:22;;;;;;;0.75;0.30;;;;;;;5.64;74.08;150086.56;11136491;26;20019;-73
2024/04/16 01:50:23;;;;;;;0.82;0.30;;;;;;;5.66;74.98;150092.94;11136322;26;20029;-73
2024/04/16 01:55:25;;;;;;;0.50;0.20;;;;;;;5.82;73.11;150132.84;11136064;26;20000;-74
2024/04/16 02:00:27;;;;;;;0.85;0.32;;;;;;;5.77;73.85;150120.00;11142567;26;20484;-73
2024/04/16 02:05:29;;;;;;;0.38;0.38;;;;;;;5.79;74.53;150125.13;11142381;26;20028;-73
2024/04/16 02:10:31;;;;;;;0.35;0.30;;;;;;;5.81;73.47;150130.28;11142875;26;20008;-73
2024/04/16 02:15:33;;;;;;;0.70;0.30;;;;;;;5.54;75.80;150062.13;11142530;26;20007;-73
2024/04/16 02:20:35;;;;;;;0.38;0.30;;;;;;;5.49;74.81;150049.22;11143622;26;20019;-73
2024/04/16 02:25:37;;;;;;;0.50;0.20;;;;;;;5.56;74.59;150067.25;11142194;26;20015;-74
2024/04/16 02:30:39;;;;;;;0.30;0.30;;;;;;;5.49;75.69;150050.56;11141846;26;20016;-75
2024/04/16 02:35:41;;;;;;;0.32;0.30;;;;;;;5.53;75.14;150059.50;11142048;26;20494;-74
2024/04/16 02:40:44;;;;;;;0.45;0.32;;;;;;;5.44;75.15;150037.66;11141921;26;20020;-73
2024/04/16 02:45:47;;;;;;;2.40;0.50;;;;;;;5.51;74.02;150055.66;11141677;26;20008;-72
2024/04/16 02:50:53;;;;;;;0.50;0.40;;;;;;;5.49;73.38;150049.22;11141674;26;20456;-72
2024/04/16 02:55:55;;;;;;;0.80;0.28;;;;;;;5.48;73.49;150046.66;11141388;26;20000;-72
2024/04/16 03:00:57;;;;;;;0.47;0.30;;;;;;;5.43;74.33;150033.81;11141981;26;20040;-73
2024/04/16 03:05:59;;;;;;;1.33;0.60;;;;;;;5.57;73.09;150071.09;11139535;26;20077;-73
2024/04/16 03:11:02;;;;;;;0.52;0.30;;;;;;;5.56;73.16;150068.53;11140254;26;20040;-73
2024/04/16 03:16:07;;;;;;;0.30;0.30;;;;;;;5.67;72.48;150094.28;11140936;26;20464;-73
2024/04/16 03:21:09;;;;;;;0.98;0.50;;;;;;;5.73;73.01;150109.69;11141132;26;20004;-72
2024/04/16 03:26:11;;;;;;;1.65;0.70;;;;;;;5.80;73.13;150127.72;11140682;26;20000;-73
2024/04/16 03:31:12;;;;;;;0.93;0.47;;;;;;;5.98;72.25;150172.78;11138562;26;20425;-73
2024/04/16 03:36:14;;;;;;;1.25;0.40;;;;;;;5.90;73.12;150153.44;11138772;26;20045;-71
2024/04/16 03:41:16;;;;;;;0.85;0.40;;;;;;;6.04;71.78;150189.50;11140357;26;20340;-74
2024/04/16 03:46:18;;;;;;;0.30;0.30;;;;;;;6.05;71.74;150192.06;11138710;26;20010;-72
2024/04/16 03:51:20;;;;;;;1.05;0.40;;;;;;;5.98;72.56;150174.09;11141037;26;20492;-74
2024/04/16 03:56:22;;;;;;;1.17;0.47;;;;;;;5.88;73.62;150147.00;11139582;26;20004;-74
2024/04/16 04:01:24;;;;;;;1.20;0.45;;;;;;;5.79;74.14;150125.13;11139697;26;20467;-72
2024/04/16 04:06:26;;;;;;;1.73;0.47;;;;;;;5.76;75.12;150117.44;11139366;26;20071;-72
2024/04/16 04:11:27;;;;;;;0.60;0.40;;;;;;;5.77;75.22;150121.28;11139457;26;20000;-73
2024/04/16 04:16:29;;;;;;;0.90;0.40;;;;;;;5.82;74.86;150132.84;11139138;26;20472;-74
2024/04/16 04:21:31;;;;;;;0.65;0.45;;;;;;;5.92;74.80;150158.63;11137778;26;20000;-72
2024/04/16 04:26:33;;;;;;;1.67;0.40;;;;;;;5.91;73.52;150156.00;11138832;26;20015;-74
2024/04/16 04:31:35;;;;;;;0.30;0.30;;;;;;;6.01;73.33;150180.47;11138692;26;20525;-74
2024/04/16 04:36:37;;;;;;;1.27;0.30;;;;;;;6.03;73.37;150185.66;11138792;26;20007;-74
2024/04/16 04:41:39;;;;;;;0.82;0.50;;;;;;;5.82;75.58;150134.13;11138640;26;20000;-73
2024/04/16 04:46:41;;;;;;;1.58;0.50;;;;;;;5.97;75.20;150170.19;11136745;26;20018;-72
2024/04/16 04:51:42;;;;;;;0.30;0.30;;;;;;;6.07;74.13;150197.25;11138387;26;20050;-74
2024/04/16 04:56:45;;;;;;;0.73;0.40;;;;;;;6.12;74.59;150207.53;11136303;26;20018;-73
2024/04/16 05:01:46;;;;;;;0.80;0.47;;;;;;;6.01;75.79;150180.47;11137781;26;20476;-73
2024/04/16 05:06:48;;;;;;;0.70;0.45;;;;;;;5.90;76.46;150153.44;11138422;26;20361;-73
2024/04/16 05:11:50;;;;;;;1.45;0.50;;;;;;;6.10;75.37;150202.34;11138443;26;20007;-72
2024/04/16 05:16:52;;;;;;;1.70;0.50;;;;;;;6.01;76.15;150181.75;11135767;26;20001;-73
2024/04/16 05:21:54;;;;;;;0.50;0.50;;;;;;;6.14;74.25;150213.94;11137240;26;20000;-73
2024/04/16 05:26:56;;;;;;;1.85;0.40;;;;;;;6.14;74.17;150212.66;11136863;26;20000;-73
2024/04/16 05:31:58;;;;;;;7.05;0.93;;;;;;;6.18;74.06;150222.97;11136317;26;20004;-72
2024/04/16 05:37:00;;;;;;;1.63;0.40;;;;;;;6.34;75.09;150262.88;11134650;26;20008;-73
2024/04/16 05:42:02;;;;;;;0.73;0.43;;;;;;;6.45;71.74;150291.16;11136855;26;20000;-72
2024/04/16 05:47:04;;;;;;;0.88;0.45;;;;;;;6.42;72.56;150284.75;11136446;26;20000;-72
2024/04/16 05:52:07;;;;;;;1.63;0.45;;;;;;;6.60;71.00;150329.78;11137579;26;20406;-73
2024/04/16 05:57:09;;;;;;;0.43;0.30;;;;;;;6.72;70.67;150360.66;11136478;26;20419;-72
2024/04/16 06:02:11;;;;;;;0.38;0.20;;;;;;;7.00;68.53;150430.22;11137907;26;20542;-73
2024/04/16 06:07:13;;;;;;;1.23;0.40;;;;;;;7.33;67.33;150513.88;11135982;26;20033;-72
2024/04/16 06:12:15;;;;;;;1.27;0.45;;;;;;;7.60;66.37;150582.16;11136529;26;20005;-72
2024/04/16 06:17:17;;;;;;;0.52;0.20;;;;;;;7.71;64.22;150610.53;11135628;26;20460;-72
2024/04/16 06:22:19;;;;;;;3.50;0.47;;;;;;;7.94;65.00;150667.22;11136089;26;20001;-72
2024/04/16 06:27:20;;;;;;;0.80;0.30;;;;;;;8.30;62.67;150759.97;11135406;26;20060;-72
2024/04/16 06:32:22;;;;;;;1.33;0.32;;;;;;;8.18;62.87;150729.03;11135085;26;20031;-72
2024/04/16 06:37:24;;;;;;;0.52;0.30;;;;;;;7.81;64.87;150635.00;11135347;26;20004;-72
2024/04/16 06:42:26;;;;;;;0.63;0.32;;;;;;;7.73;64.04;150614.38;11134839;26;20015;-73
2024/04/16 06:47:28;;;;;;;1.35;0.47;;;;;;;7.72;64.66;150613.09;11142370;26;20018;-73
2024/04/16 06:52:30;;;;;;;1.13;0.75;;;;;;;7.97;65.21;150674.91;11141528;26;20004;-72
2024/04/16 06:57:32;;;;;;;0.63;0.40;;;;;;;8.00;64.68;150682.66;11142999;26;20475;-72
2024/04/16 07:02:34;;;;;;;0.98;0.30;;;;;;;7.85;62.49;150645.31;11141429;26;20000;-73
2024/04/16 07:07:36;;;;;;;1.15;0.50;;;;;;;7.78;63.29;150628.53;11141779;26;20015;-73
2024/04/16 07:12:38;;;;;;;1.00;0.47;;;;;;;7.81;63.66;150636.28;11141486;26;19996;-73
2024/04/16 07:17:40;;;;;;;2.03;0.47;;;;;;;7.95;61.09;150671.06;11141534;26;20004;-73
2024/04/16 07:22:42;;;;;;;2.72;0.43;;;;;;;8.03;62.50;150691.69;11141665;26;20372;-73
2024/04/16 07:27:44;;;;;;;1.65;0.40;;;;;;;8.15;59.73;150720.06;11141186;26;20004;-72
2024/04/16 07:32:46;;;;;;;1.65;0.35;;;;;;;8.37;61.22;150776.81;11139591;26;20023;-73
2024/04/16 07:37:48;;;;;;;1.75;0.30;;;;;;;8.37;56.60;150776.81;11142040;26;20077;-73
2024/04/16 07:42:50;;;;;;;0.75;0.30;;;;;;;8.24;56.88;150743.25;11139499;26;20484;-73
2024/04/16 07:47:52;;;;;;;1.38;0.43;;;;;;;8.13;56.88;150714.88;11141211;26;20015;-73
2024/04/16 07:52:54;;;;;;;2.28;0.60;;;;;;;8.33;60.19;150766.44;11138944;26;20460;-73
2024/04/16 07:57:56;;;;;;;0.60;0.25;;;;;;;8.42;58.83;150788.41;11139846;26;20345;-71
2024/04/16 08:02:58;;;;;;;0.50;0.30;;;;;;;8.34;56.46;150769.00;11149126;26;20055;-72
2024/04/16 08:08:00;;;;;;;0.98;0.30;;;;;;;8.44;56.66;150793.53;11139782;26;20011;-73
2024/04/16 08:13:02;;;;;;;1.45;0.30;;;;;;;8.73;58.28;150867.06;11141407;26;20040;-73
2024/04/16 08:18:04;;;;;;;0.82;0.40;;;;;;;8.78;57.40;150881.22;11144407;26;20007;-72
2024/04/16 08:23:06;;;;;;;1.55;0.30;;;;;;;9.12;57.94;150965.03;11144375;26;20008;-73
2024/04/16 08:28:08;;;;;;;1.70;0.30;;;;;;;9.63;54.12;151094.03;11141444;26;20008;-73
2024/04/16 08:33:14;;;;;;;1.00;0.22;;;;;;;9.35;53.52;151024.38;11143611;26;20004;-73
2024/04/16 08:38:18;;;;;;;2.17;0.63;;;;;;;8.91;55.11;150913.47;11139541;26;20008;-72
2024/04/16 08:43:21;;;;;;;1.13;0.40;;;;;;;8.83;54.54;150894.09;11138470;26;20414;-72
2024/04/16 08:48:23;;;;;;;3.00;0.30;;;;;;;9.11;56.26;150963.72;11140498;26;20000;-72
2024/04/16 08:53:27;;;;;;;1.48;0.40;;;;;;;9.59;55.09;151086.28;11139921;26;20012;-72
2024/04/16 08:58:29;;;;;;;1.45;0.38;;;;;;;9.92;54.16;151168.91;11139173;26;20000;-73
2024/04/16 09:03:32;;;;;;;0.98;0.30;;;;;;;9.74;52.93;151122.41;11138418;26;20032;-73
2024/04/16 09:08:36;;;;;;;1.02;0.28;;;;;;;10.11;54.41;151216.63;11137643;26;20459;-73
2024/04/16 09:13:43;;;;;;;0.80;0.20;;;;;;;10.45;52.01;151301.91;11138362;26;20028;-73
2024/04/16 09:18:45;;;;;;;1.88;0.30;;;;;;;10.79;52.35;151388.38;11139009;26;20032;-73
2024/04/16 09:23:56;;;;;;;1.17;0.50;;;;;;;10.83;48.77;151398.72;11137718;26;20038;-73
2024/04/16 09:28:58;;;;;;;0.38;0.20;;;;;;;10.67;51.37;151357.38;11137508;26;20011;-74
2024/04/16 09:34:07;;;;;;;1.25;0.47;;;;;;;10.17;50.40;151230.81;11134745;26;20439;-74
2024/04/16 09:39:09;;;;;;;1.80;0.60;;;;;;;10.24;52.50;151248.91;11137703;26;20004;-73
2024/04/16 09:44:13;;;;;;;1.35;0.32;;;;;;;10.30;47.55;151264.44;11135008;26;20000;-74
2024/04/16 09:49:17;;;;;;;0.77;0.40;;;;;;;10.67;47.40;151358.72;11137358;26;20015;-73
2024/04/16 09:54:21;;;;;;;0.30;0.20;;;;;;;10.80;46.65;151390.94;11171091;26;20459;-73
2024/04/16 09:59:25;;;;;;;1.17;0.20;;;;;;;10.82;47.95;151396.13;11180319;26;20339;-73
2024/04/16 10:04:27;;;;;;;3.50;0.30;;;;;;;11.48;47.40;151562.78;11137074;26;20004;-73
2024/04/16 10:09:30;;;;;;;0.77;0.25;;;;;;;11.91;44.67;151672.69;11136154;26;20004;-73
2024/04/16 10:14:32;;;;;;;0.43;0.28;;;;;;;11.68;45.58;151613.16;11137535;26;20014;-73
2024/04/16 10:19:34;;;;;;;1.33;0.52;;;;;;;11.47;44.04;151560.22;11138723;26;20004;-75
2024/04/16 10:24:36;;;;;;;1.10;0.38;;;;;;;11.54;46.01;151579.56;11166064;26;20339;-73
2024/04/16 10:29:37;;;;;;;1.23;0.45;;;;;;;11.83;45.70;151652.00;11217277;26;20451;-73
2024/04/16 10:34:42;;;;;;;0.45;0.20;;;;;;;11.18;43.98;151487.84;11214133;26;20035;-72
2024/04/16 10:39:44;;;;;;;0.63;0.20;;;;;;;11.82;46.35;151649.31;11216373;26;20045;-73
2024/04/16 10:44:46;;;;;;;1.92;0.40;;;;;;;11.23;45.76;151499.47;11215876;26;20467;-72
2024/04/16 10:49:48;;;;;;;1.33;0.70;;;;;;;10.78;46.30;151385.81;11197811;26;19996;-73
2024/04/16 10:54:52;;;;;;;1.65;0.30;;;;;;;10.55;47.58;151327.72;11101423;26;20012;-72
2024/04/16 10:59:55;;;;;;;0.80;0.30;;;;;;;10.46;50.27;151304.47;11131450;26;20037;-72
2024/04/16 11:05:09;;;;;;;1.33;0.30;;;;;;;10.24;49.04;151250.25;11143056;26;20019;-73
2024/04/16 11:10:11;;;;;;;0.47;0.28;;;;;;;10.26;50.10;151254.09;11141446;26;20073;-72
2024/04/16 11:15:13;;;;;;;0.95;0.30;;;;;;;10.22;50.19;151243.72;11140900;26;20000;-72
2024/04/16 11:20:15;;;;;;;1.27;0.20;;;;;;;10.20;47.54;151239.88;11141987;26;20044;-70
2024/04/16 11:25:17;;;;;;;1.00;0.22;;;;;;;10.61;46.13;151343.19;11141321;26;20419;-70
2024/04/16 11:30:19;;;;;;;0.40;0.25;;;;;;;11.75;44.85;151631.25;11139453;26;19996;-70
2024/04/16 11:35:21;;;;;;;1.42;0.45;;;;;;;12.09;44.45;151719.22;11139322;26;20004;-70
2024/04/16 11:40:23;;;;;;;1.33;0.20;;;;;;;11.46;45.82;151558.88;11141383;26;19996;-70
2024/04/16 11:45:27;;;;;;;0.70;0.30;;;;;;;11.31;46.49;151520.13;11139515;26;20077;-71
2024/04/16 11:50:29;;;;;;;0.20;0.15;;;;;;;11.86;47.37;151659.72;11141213;26;20008;-70
2024/04/16 11:55:31;;;;;;;1.08;0.20;;;;;;;12.09;43.82;151719.22;11139147;26;20008;-71
2024/04/16 12:00:33;;;;;;;0.57;0.20;;;;;;;12.52;43.28;151827.78;11141224;26;20008;-71
2024/04/16 12:05:35;;;;;;;0.10;0.10;;;;;;;12.28;44.51;151765.72;11140713;26;20016;-72
2024/04/16 12:10:37;;;;;;;0.32;0.10;;;;;;;12.81;42.80;151901.50;11139001;26;20059;-74
2024/04/16 12:15:39;;;;;;;0.40;0.25;;;;;;;12.73;44.12;151880.81;11167975;26;20031;-71
2024/04/16 12:20:41;;;;;;;0.15;0.10;;;;;;;12.46;44.33;151811.00;11190584;26;20036;-71
2024/04/16 12:25:43;;;;;;;0.17;0.10;;;;;;;12.45;43.56;151809.69;11139918;26;20015;-71
2024/04/16 12:30:48;;;;;;;0.20;0.20;;;;;;;11.99;44.37;151693.31;11175722;26;20011;-71
2024/04/16 12:35:50;;;;;;;0.35;0.20;;;;;;;11.82;47.60;151650.72;11150252;26;20003;-71
2024/04/16 12:40:52;;;;;;;0.57;0.20;;;;;;;12.29;48.88;151769.59;11210379;26;20003;-72
2024/04/16 12:45:58;;;;;;;0.60;0.20;;;;;;;12.09;49.58;151717.91;11180682;26;20000;-72
2024/04/16 12:51:00;;;;;;;0.63;0.20;;;;;;;12.47;48.30;151814.84;11140818;26;20008;-71
2024/04/16 12:56:03;;;;;;;0.32;0.22;;;;;;;12.59;45.45;151845.91;11141089;26;19997;-72
2024/04/16 13:01:05;;;;;;;0.52;0.20;;;;;;;12.34;47.88;151781.22;11143755;26;20011;-72
2024/04/16 13:06:07;;;;;;;2.13;0.20;;;;;;;11.94;49.38;151679.13;11213476;26;20010;-72
2024/04/16 13:11:09;;;;;;;1.65;1.27;;;;;;;11.43;50.47;151551.16;11214006;26;20035;-72
2024/04/16 13:16:11;;;;;;;1.00;0.30;;;;;;;10.74;57.17;151376.75;11211077;26;20033;-70
2024/04/16 13:21:14;;;;;;;0.52;0.20;;;;;;;9.66;63.67;151103.09;11213622;26;20007;-70
2024/04/16 13:26:16;;;;;;;0.20;0.10;;;;;;;9.79;65.21;151135.34;11210767;26;20477;-70
2024/04/16 13:31:17;;;;;;;0.50;0.20;;;;;;;10.45;61.04;151301.91;11211889;26;20459;-70
2024/04/16 13:36:19;;;;;;;0.55;0.25;;;;;;;11.08;57.84;151463.31;11189464;26;20456;-71
2024/04/16 13:41:21;;;;;;;0.00;0.00;;;;;;;11.52;52.79;151573.13;11137279;26;20001;-71
2024/04/16 13:46:23;;;;;;;0.90;0.10;;;;;;;11.59;51.42;151591.19;11137208;26;19996;-70
2024/04/16 13:51:25;;;;;;;0.95;0.30;;;;;;;11.63;52.18;151601.53;11138344;26;20424;-71
2024/04/16 13:56:27;;;;;;;0.17;0.10;;;;;;;11.53;52.02;151576.97;11151907;26;20506;-71
2024/04/16 14:01:29;;;;;;;0.25;0.20;;;;;;;11.59;52.80;151591.19;11152626;26;20028;-71
2024/04/16 14:06:31;;;;;;;0.20;0.20;;;;;;;11.44;53.34;151553.72;11151870;26;20522;-70
2024/04/16 14:11:32;;;;;;;1.70;0.20;;;;;;;11.37;53.06;151536.91;11151264;26;20008;-70
2024/04/16 14:16:34;;;;;;;0.45;0.45;;;;;;;11.56;53.47;151583.47;11151814;26;20015;-72
2024/04/16 14:21:36;;;;;;;1.50;0.60;;;;;;;11.10;56.29;151467.16;11148979;26;20078;-70
2024/04/16 14:26:38;;;;;;;0.20;0.20;;;;;;;10.31;60.77;151267.00;11150610;26;20317;-72
2024/04/16 14:31:40;;;;;;;0.10;0.05;;;;;;;9.74;63.27;151123.72;11148642;26;20402;-70
2024/04/16 14:36:42;;;;;;;0.30;0.22;;;;;;;9.68;68.21;151106.94;11175873;26;20014;-71
2024/04/16 14:41:47;;;;;;;5.50;0.30;;;;;;;9.29;74.18;151010.16;11224843;26;20340;-70
2024/04/16 14:46:52;;;;;;;0.98;0.40;;;;;;;9.32;74.17;151016.63;11223948;26;20010;-71
2024/04/16 14:51:54;;;;;;;0.80;0.20;;;;;;;9.76;76.43;151127.59;11221529;26;20004;-71
2024/04/16 14:56:55;;;;;;;0.30;0.30;;;;;;;10.15;70.69;151225.69;11223911;26;19999;-71
2024/04/16 15:01:57;;;;;;;0.60;0.20;;;;;;;9.86;70.57;151154.66;11221574;26;20040;-70
2024/04/16 15:07:00;;;;;;;0.10;0.10;;;;;;;9.96;72.63;151177.88;11214723;26;20081;-70
2024/04/16 15:12:02;;;;;;;0.47;0.20;;;;;;;10.22;69.41;151245.00;11210475;26;20003;-70
2024/04/16 15:17:04;;;;;;;1.00;0.28;;;;;;;10.23;69.99;151246.34;11214597;26;20033;-71
2024/04/16 15:22:06;;;;;;;0.38;0.30;;;;;;;9.77;71.13;151131.44;11212124;26;20544;-71
2024/04/16 15:27:08;;;;;;;0.20;0.10;;;;;;;9.48;71.35;151057.94;11214425;26;19995;-72
2024/04/16 15:32:09;;;;;;;0.20;0.05;;;;;;;8.96;73.75;150926.34;11214103;26;20003;-71
2024/04/16 15:37:11;;;;;;;0.00;0.00;;;;;;;8.57;74.82;150827.06;11214230;26;20000;-72
2024/04/16 15:42:13;;;;;;;0.20;0.00;;;;;;;8.23;76.32;150741.91;11213767;26;20076;-72
2024/04/16 15:47:15;;;;;;;0.10;0.03;;;;;;;8.19;79.04;150731.66;11213573;26;20547;-71
2024/04/16 15:52:20;;;;;;;0.00;0.00;;;;;;;8.03;80.86;150691.69;11212184;26;20007;-71
2024/04/16 15:57:22;;;;;;;0.00;0.00;;;;;;;8.06;82.13;150699.44;11214419;26;20329;-71
2024/04/16 16:02:24;;;;;;;0.05;0.05;;;;;;;8.26;81.45;150748.38;11174650;26;20061;-72
2024/04/16 16:07:26;;;;;;;0.10;0.10;;;;;;;8.24;82.51;150743.25;11150767;26;20013;-72
2024/04/16 16:12:28;;;;;;;0.50;0.20;;;;;;;8.32;82.33;150765.16;11212965;26;20036;-71
2024/04/16 16:17:30;;;;;;;0.10;0.10;;;;;;;8.17;81.90;150725.19;11211804;26;20003;-70
2024/04/16 16:22:32;;;;;;;0.05;0.05;;;;;;;8.22;83.49;150738.06;11189283;26;20004;-72
2024/04/16 16:27:34;;;;;;;0.43;0.10;;;;;;;8.09;85.57;150707.13;11068044;26;20350;-70
2024/04/16 16:32:36;;;;;;;1.02;0.10;;;;;;;8.27;84.84;150750.94;11069060;26;20034;-70
2024/04/16 16:37:39;;;;;;;0.10;0.10;;;;;;;8.18;81.53;150727.75;11213131;26;20040;-71
2024/04/16 16:42:41;;;;;;;0.10;0.03;;;;;;;8.18;81.52;150727.75;11211280;26;20487;-71
2024/04/16 16:47:43;;;;;;;0.22;0.10;;;;;;;8.29;82.73;150756.13;11211403;26;20000;-70
2024/04/16 16:52:45;;;;;;;0.28;0.13;;;;;;;8.27;83.95;150752.22;11212897;26;20023;-71
2024/04/16 16:57:47;;;;;;;0.10;0.10;;;;;;;8.42;80.27;150789.69;11215058;26;20467;-70
2024/04/16 17:02:51;;;;;;;0.20;0.10;;;;;;;8.47;82.03;150801.28;11213859;26;20487;-71
2024/04/16 17:07:53;;;;;;;0.10;0.00;;;;;;;8.39;81.17;150780.66;11197503;26;20012;-71
2024/04/16 17:12:55;;;;;;;0.10;0.10;;;;;;;8.41;83.35;150787.13;11140906;26;20010;-71
2024/04/16 17:17:57;;;;;;;0.20;0.20;;;;;;;8.15;86.00;150721.34;11142049;26;20016;-71
2024/04/16 17:23:00;;;;;;;0.10;0.10;;;;;;;8.12;85.06;150713.59;11142161;26;20004;-72
2024/04/16 17:28:01;;;;;;;0.10;0.10;;;;;;;7.96;88.39;150673.63;11137916;26;20000;-71
2024/04/16 17:33:04;;;;;;;0.30;0.20;;;;;;;7.87;88.70;150649.16;11141289;26;20000;-72
2024/04/16 17:38:11;;;;;;;0.17;0.17;;;;;;;7.94;88.92;150667.22;11140769;26;20000;-74
2024/04/16 17:43:13;;;;;;;;;;;;;;;8.03;88.06;150691.69;11141174;26;20004;-72
2024/04/16 17:48:15;;;;;;;0.20;0.10;;;;;;;7.73;90.68;150614.38;11141067;26;19926;-71
2024/04/16 17:53:17;;;;;;;0.40;0.40;;;;;;;7.61;90.94;150583.44;11140456;26;20011;-71
2024/04/16 17:58:19;;;;;;;0.10;0.10;;;;;;;7.52;91.84;150561.53;11140850;26;20037;-72
2024/04/16 18:03:21;;;;;;;0.30;0.20;;;;;;;7.77;88.12;150625.97;11139744;26;20344;-72
2024/04/16 18:08:26;;;;;;;0.38;0.28;;;;;;;7.51;90.00;150560.25;11140132;26;20015;-71
2024/04/16 18:13:28;;;;;;;0.38;0.20;;;;;;;7.51;89.27;150560.25;11141233;26;19996;-71
2024/04/16 18:18:30;;;;;;;0.82;0.25;;;;;;;7.41;90.50;150534.50;11139942;26;20549;-72
2024/04/16 18:23:33;;;;;;;0.30;0.17;;;;;;;7.15;91.55;150468.81;11139971;26;20000;-73
2024/04/16 18:28:38;;;;;;;0.75;0.20;;;;;;;7.54;88.68;150566.72;11140104;26;20008;-72
2024/04/16 18:33:40;;;;;;;0.60;0.30;;;;;;;7.25;92.49;150493.28;11139060;26;20007;-72
2024/04/16 18:38:46;;;;;;;0.90;0.40;;;;;;;7.33;91.47;150513.88;11138839;26;20004;-71
2024/04/16 18:43:48;;;;;;;1.38;0.40;;;;;;;7.03;93.38;150439.19;11146176;26;19996;-72
2024/04/16 18:48:50;;;;;;;0.82;0.40;;;;;;;7.14;94.53;150464.97;11146400;26;20019;-73
2024/04/16 18:53:52;;;;;;;0.45;0.20;;;;;;;6.88;94.65;150400.59;11145915;26;20000;-72
2024/04/16 18:58:54;;;;;;;0.13;0.13;;;;;;;6.86;96.07;150395.41;11144730;26;20007;-72
2024/04/16 19:03:56;;;;;;;0.20;0.10;;;;;;;7.08;92.49;150452.09;11147497;26;20004;-72
2024/04/16 19:08:58;;;;;;;0.35;0.20;;;;;;;7.07;93.64;150449.50;11145766;26;20012;-74
2024/04/16 19:14:03;;;;;;;0.10;0.10;;;;;;;6.87;95.44;150398.03;11143858;26;20432;-72
2024/04/16 19:19:05;;;;;;;0.20;0.15;;;;;;;6.80;96.38;150379.97;11145703;26;20098;-73
2024/04/16 19:24:07;;;;;;;0.10;0.10;;;;;;;7.03;94.11;150439.19;11145686;26;20000;-72
2024/04/16 19:29:09;;;;;;;0.40;0.30;;;;;;;7.30;91.42;150507.47;11144988;26;20012;-72
2024/04/16 19:34:11;;;;;;;0.40;0.30;;;;;;;7.02;94.51;150435.34;11143792;26;20000;-73
2024/04/16 19:39:13;;;;;;;0.20;0.20;;;;;;;7.24;92.47;150490.72;11143476;26;20005;-72
2024/04/16 19:44:15;;;;;;;0.20;0.20;;;;;;;7.33;92.21;150513.88;11143501;26;20391;-72
2024/04/16 19:49:17;;;;;;;0.22;0.22;;;;;;;7.13;93.84;150462.34;11144509;26;20085;-71
2024/04/16 19:54:19;;;;;;;0.40;0.40;;;;;;;6.90;95.79;150405.72;11143048;26;20000;-71
2024/04/16 19:59:21;;;;;;;0.40;0.40;;;;;;;6.97;94.99;150423.75;11143359;26;20355;-71
2024/04/16 20:04:23;;;;;;;1.05;0.40;;;;;;;6.94;96.75;150416.00;11141983;26;20011;-72
2024/04/16 20:09:25;;;;;;;0.50;0.50;;;;;;;7.02;95.89;150436.63;11143672;26;20004;-72
2024/04/16 20:14:27;;;;;;;0.50;0.40;;;;;;;6.92;95.83;150410.88;11143131;26;20014;-72
2024/04/16 20:19:29;;;;;;;0.40;0.40;;;;;;;7.01;95.37;150432.78;11140788;26;20468;-71
2024/04/16 20:24:33;;;;;;;0.65;0.50;;;;;;;6.81;97.51;150382.53;11140502;26;20000;-71
2024/04/16 20:29:35;;;;;;;0.60;0.57;;;;;;;6.74;97.93;150365.81;11141045;26;20012;-71
2024/04/16 20:34:37;;;;;;;0.52;0.50;;;;;;;6.86;96.49;150394.13;11140616;26;20410;-72
2024/04/16 20:39:52;;;;;;;0.52;0.50;;;;;;;6.90;96.77;150404.44;11139026;26;20032;-71
2024/04/16 20:44:54;;;;;;;0.85;0.63;;;;;;;6.61;98.89;150332.34;11139003;26;20044;-71
2024/04/16 20:49:56;;;;;;;0.75;0.70;;;;;;;6.51;100.00;150306.63;11139839;26;20165;-72
2024/04/16 20:54:58;;;;;;;0.95;0.60;;;;;;;6.42;100.00;150283.41;11140491;26;20012;-72
2024/04/16 21:00:00;;;;;;;0.47;0.47;;;;;;;6.51;100.00;150306.63;11138228;26;20008;-72
2024/04/16 21:05:03;;;;;;;0.70;0.70;;;;;;;6.44;100.00;150289.88;11137592;26;20007;-72
2024/04/16 21:10:05;;;;;;;0.85;0.70;;;;;;;6.44;100.00;150288.59;11139122;26;20008;-72
2024/04/16 21:15:07;;;;;;;0.70;0.70;;;;;;;6.23;100.00;150235.81;11138054;26;20090;-72
2024/04/16 21:20:09;;;;;;;0.88;0.88;;;;;;;6.21;100.00;150230.69;11138008;26;20027;-72
2024/04/16 21:25:10;;;;;;;1.00;0.90;;;;;;;5.97;100.00;150170.19;11137880;26;20032;-71
2024/04/16 21:30:14;;;;;;;1.02;0.93;;;;;;;6.22;100.00;150234.53;11137842;26;20011;-71
2024/04/16 21:35:17;;;;;;;0.90;0.90;;;;;;;6.32;100.00;150260.25;11135627;26;20523;-71
2024/04/16 21:40:19;;;;;;;1.40;1.30;;;;;;;6.20;100.00;150228.13;11138033;26;20012;-72
2024/04/16 21:45:21;;;;;;;1.00;0.90;;;;;;;6.36;100.00;150268.00;11138289;26;20012;-71
2024/04/16 21:50:23;;;;;;;1.48;1.17;;;;;;;6.25;100.00;150241.00;11137754;26;20032;-71
2024/04/16 21:55:27;;;;;;;1.20;1.10;;;;;;;6.32;100.00;150260.25;11137791;26;20001;-72
2024/04/16 22:00:29;;;;;;;1.23;1.10;;;;;;;6.22;100.00;150233.25;11137851;26;20020;-71
2024/04/16 22:05:30;;;;;;;1.23;1.10;;;;;;;6.30;100.00;150255.13;11137356;26;20047;-71
2024/04/16 22:10:32;;;;;;;2.72;1.15;;;;;;;6.48;100.00;150300.19;11136663;26;20553;-71
2024/04/16 22:15:34;;;;;;;1.60;1.40;;;;;;;6.41;100.00;150280.84;11140831;26;20001;-71
2024/04/16 22:20:36;;;;;;;1.95;1.30;;;;;;;6.54;100.00;150314.31;11143405;26;20032;-71
2024/04/16 22:25:38;;;;;;;2.05;1.38;;;;;;;6.53;100.00;150313.03;11142972;26;20364;-72
2024/04/16 22:30:40;;;;;;;1.05;0.95;;;;;;;6.43;100.00;150287.31;11143936;26;20008;-70
2024/04/16 22:35:46;;;;;;;1.73;1.42;;;;;;;6.55;100.00;150316.88;11142492;26;20001;-72
2024/04/16 22:40:49;;;;;;;1.30;1.15;;;;;;;6.54;100.00;150315.59;11143027;26;20000;-71
2024/04/16 22:45:53;;;;;;;1.42;1.33;;;;;;;6.42;100.00;150284.75;11140163;26;20004;-71
2024/04/16 22:50:55;;;;;;;1.20;1.10;;;;;;;6.36;100.00;150268.00;11142019;26;20012;-70
2024/04/16 22:55:57;;;;;;;1.40;1.08;;;;;;;6.44;100.00;150288.59;11141791;26;20048;-70
2024/04/16 23:00:59;;;;;;;1.83;1.33;;;;;;;6.41;100.00;150282.13;11141905;26;20011;-71
2024/04/16 23:06:01;;;;;;;3.13;1.60;;;;;;;6.19;100.00;150225.53;11141630;26;20015;-71
2024/04/16 23:11:03;;;;;;;1.70;1.58;;;;;;;6.24;100.00;150239.72;11141795;26;20479;-70
2024/04/16 23:16:05;;;;;;;1.52;1.42;;;;;;;6.41;100.00;150280.84;11142064;26;20044;-71
2024/04/16 23:21:07;;;;;;;1.80;1.27;;;;;;;6.26;100.00;150244.84;11141314;26;20004;-71